There are multiple Weather-warnings   Click here for more information


Meteo18 Weather Cam more information Meteo18 Weather Cam


warning for Thunderstorms more information blitzortung!


Rain radar more information rain snow radar


Visit our other weather sites:

Template documentation
and downloads

And another site



Weather Underground History page Text

Daily Summary for February 3, 2017 Units:  English    Metric   Both
« Previous Day
Next Day »
Daily Weekly Monthly Yearly Custom
  High: Low: Average:
Temperature: 48.6 °F 39.2 °F 44.8 °F
Dew Point: 44.6 °F 37.8 °F 41.4 °F
Humidity: 96 % 76 % 88 %
Wind Speed: 27 mph 0 mph 7.5 mph
Wind Gust: 32 mph - -
Wind:- - SSW
Pressure: 29.8 in 29.6 in -
Precipitation: 0.1 in    
Historical Graphs
 
 
Tabular Data for February 3, 2017
Time Temperature Dew Point Pressure Wind Wind Speed Wind Gust Humidity Rainfall Rate (Hourly)
00:02 46.2 °F 44.6 °F 29.7 in SSW 6 mph 8 mph 94 % 0.01 in
00:07 46.2 °F 44.6 °F 29.7 in SSW 7 mph 9 mph 94 % 0.01 in
00:12 46.2 °F 44.6 °F 29.7 in SW 8 mph 9 mph 94 % 0.01 in
00:17 46 °F 44.4 °F 29.8 in SSW 5 mph 10 mph 94 % 0.01 in
00:22 46 °F 44.4 °F 29.8 in SSW 8 mph 10 mph 94 % 0.01 in
00:27 46 °F 44.4 °F 29.8 in SSW 6 mph 10 mph 94 % 0.01 in
00:32 46 °F 44.4 °F 29.8 in SW 5 mph 11 mph 94 % 0.01 in
00:37 46 °F 44.4 °F 29.8 in SW 5 mph 11 mph 94 % 0.01 in
00:42 46 °F 44.4 °F 29.8 in SW 11 mph 11 mph 94 % 0.02 in
00:47 46 °F 44.4 °F 29.8 in SSW 5 mph 11 mph 94 % 0.01 in
00:52 46 °F 44.4 °F 29.8 in SW 7 mph 11 mph 94 % 0.01 in
00:57 46 °F 44.4 °F 29.8 in SW 8 mph 11 mph 94 % 0.01 in
01:02 46 °F 44.4 °F 29.8 in SSW 6 mph 12 mph 94 % 0.01 in
01:07 46 °F 44.4 °F 29.8 in SW 5 mph 12 mph 94 % 0.01 in
01:12 46 °F 44.4 °F 29.8 in SSW 8 mph 12 mph 94 % 0.01 in
01:17 46 °F 44.4 °F 29.8 in SSW 6 mph 11 mph 94 % 0.01 in
01:22 45.9 °F 44.2 °F 29.8 in SSW 6 mph 11 mph 94 % 0.01 in
01:27 45.9 °F 44.2 °F 29.8 in SSW 8 mph 11 mph 94 % 0.01 in
01:32 45.9 °F 44.2 °F 29.8 in SW 7 mph 10 mph 94 % 0.01 in
01:37 45.9 °F 44.2 °F 29.8 in SW 8 mph 11 mph 94 % 0.01 in
01:42 45.9 °F 44.2 °F 29.8 in SW 4 mph 11 mph 94 % 0 in
01:47 45.9 °F 44.2 °F 29.8 in South 7 mph 11 mph 94 % 0 in
01:52 45.9 °F 44.2 °F 29.8 in SSW 7 mph 11 mph 94 % 0 in
01:57 45.9 °F 44.2 °F 29.8 in SW 10 mph 11 mph 94 % 0 in
02:02 46 °F 44.4 °F 29.8 in SW 11 mph 13 mph 94 % 0 in
02:07 46 °F 44.4 °F 29.8 in SSW 7 mph 13 mph 94 % 0 in
02:12 46 °F 44.1 °F 29.8 in SW 11 mph 13 mph 93 % 0 in
02:17 46 °F 44.1 °F 29.8 in SW 7 mph 13 mph 93 % 0 in
02:22 46.2 °F 44.2 °F 29.8 in SW 9 mph 14 mph 93 % 0 in
02:27 46.2 °F 44.2 °F 29.8 in SSW 6 mph 14 mph 93 % 0 in
02:32 46 °F 44.1 °F 29.8 in SSW 8 mph 15 mph 93 % 0 in
02:37 46 °F 44.1 °F 29.8 in SSW 6 mph 15 mph 93 % 0 in
02:42 46 °F 44.1 °F 29.8 in SSW 6 mph 13 mph 93 % 0 in
02:47 46 °F 44.1 °F 29.8 in SSW 6 mph 12 mph 93 % 0 in
02:52 46 °F 44.1 °F 29.8 in SW 7 mph 12 mph 93 % 0 in
03:02 46 °F 43.9 °F 29.8 in SSW 6 mph 12 mph 92 % 0 in
03:07 46.2 °F 44.1 °F 29.8 in SW 6 mph 12 mph 92 % 0 in
03:12 46.2 °F 43.7 °F 29.8 in SW 10 mph 13 mph 91 % 0 in
03:17 46.4 °F 43.9 °F 29.8 in SW 5 mph 13 mph 91 % 0 in
03:22 46.2 °F 43.7 °F 29.8 in SW 7 mph 13 mph 91 % 0 in
03:27 46.4 °F 43.9 °F 29.8 in SW 10 mph 14 mph 91 % 0 in
03:32 46.4 °F 43.9 °F 29.8 in South 1 mph 14 mph 91 % 0 in
03:37 46.4 °F 43.9 °F 29.8 in SW 6 mph 14 mph 91 % 0 in
03:42 46.2 °F 44.1 °F 29.8 in SW 5 mph 12 mph 92 % 0 in
03:47 46.2 °F 44.1 °F 29.8 in SSW 8 mph 12 mph 92 % 0 in
03:52 46 °F 43.9 °F 29.8 in SW 9 mph 12 mph 92 % 0 in
03:57 45.9 °F 43.9 °F 29.8 in SSW 5 mph 12 mph 93 % 0 in
04:02 45.9 °F 43.7 °F 29.8 in SW 7 mph 12 mph 92 % 0 in
04:07 45.9 °F 43.7 °F 29.8 in SW 7 mph 12 mph 92 % 0 in
04:12 45.9 °F 43.7 °F 29.8 in SW 5 mph 12 mph 92 % 0 in
04:17 45.7 °F 43.5 °F 29.8 in SSW 5 mph 12 mph 92 % 0 in
04:22 45.9 °F 43.7 °F 29.8 in SSW 10 mph 12 mph 92 % 0 in
04:27 46 °F 43.5 °F 29.8 in SSW 10 mph 13 mph 91 % 0 in
04:32 46 °F 43.5 °F 29.8 in SW 11 mph 13 mph 91 % 0 in
04:37 46 °F 43.3 °F 29.8 in SSW 3 mph 14 mph 90 % 0 in
04:42 46 °F 43.3 °F 29.8 in SW 11 mph 14 mph 90 % 0 in
04:47 46 °F 43.3 °F 29.8 in SW 12 mph 15 mph 90 % 0 in
04:52 45.9 °F 43.2 °F 29.8 in SW 10 mph 15 mph 90 % 0 in
04:57 45.7 °F 43 °F 29.8 in SW 9 mph 15 mph 90 % 0 in
05:02 45.5 °F 42.8 °F 29.8 in SW 3 mph 13 mph 90 % 0 in
05:12 45.1 °F 42.6 °F 29.8 in SW 8 mph 13 mph 91 % 0 in
05:17 45.1 °F 42.4 °F 29.8 in SW 4 mph 12 mph 90 % 0 in
05:22 45.1 °F 42.4 °F 29.8 in SW 6 mph 12 mph 90 % 0 in
05:27 45 °F 42.3 °F 29.8 in SSW 6 mph 12 mph 90 % 0 in
05:32 44.4 °F 41.9 °F 29.8 in SSW 4 mph 11 mph 91 % 0 in
05:37 44.1 °F 41.5 °F 29.8 in SSW 3 mph 11 mph 91 % 0 in
05:42 43.7 °F 41.2 °F 29.8 in SSW 4 mph 11 mph 91 % 0 in
05:47 43.3 °F 41.2 °F 29.8 in SSW 7 mph 9 mph 92 % 0 in
05:52 43.3 °F 41.2 °F 29.8 in SSW 6 mph 9 mph 92 % 0 in
05:57 43.2 °F 41 °F 29.8 in SW 4 mph 8 mph 92 % 0 in
06:02 43.2 °F 41.4 °F 29.8 in SSW 6 mph 8 mph 93 % 0 in
06:07 43.2 °F 41.4 °F 29.8 in SW 7 mph 9 mph 93 % 0 in
06:12 43.3 °F 41.5 °F 29.8 in SSW 5 mph 9 mph 93 % 0 in
06:17 43.3 °F 41.5 °F 29.8 in SW 4 mph 10 mph 93 % 0 in
06:22 43.2 °F 41.4 °F 29.8 in SSW 4 mph 10 mph 93 % 0 in
06:27 43.2 °F 41.4 °F 29.8 in SSW 2 mph 8 mph 93 % 0 in
06:32 43 °F 41.2 °F 29.8 in SSW 3 mph 7 mph 93 % 0 in
06:37 42.8 °F 41 °F 29.8 in SSW 3 mph 6 mph 93 % 0 in
06:42 42.6 °F 40.8 °F 29.8 in SW 2 mph 6 mph 93 % 0 in
06:52 42.3 °F 40.5 °F 29.8 in SSW 3 mph 6 mph 93 % 0 in
06:57 42.1 °F 40.3 °F 29.8 in South 1 mph 6 mph 93 % 0 in
07:02 41.7 °F 39.9 °F 29.8 in SSW 1 mph 4 mph 93 % 0 in
07:07 41.5 °F 39.7 °F 29.8 in South 2 mph 4 mph 93 % 0 in
07:12 41.4 °F 39.6 °F 29.8 in South 1 mph 4 mph 93 % 0 in
07:17 41.2 °F 39.4 °F 29.8 in Calm   4 mph 93 % 0 in
07:22 40.8 °F 39 °F 29.8 in Calm   4 mph 93 % 0 in
07:27 40.6 °F 39 °F 29.8 in SSE 1 mph 2 mph 94 % 0 in
07:32 40.6 °F 39 °F 29.8 in Calm   4 mph 94 % 0 in
07:37 40.5 °F 38.8 °F 29.8 in Calm   4 mph 94 % 0 in
07:42 40.3 °F 38.7 °F 29.8 in Calm   3 mph 94 % 0 in
07:47 39.9 °F 38.3 °F 29.8 in Calm   1 mph 94 % 0 in
07:52 39.7 °F 38.1 °F 29.8 in Calm   1 mph 94 % 0 in
07:57 39.4 °F 37.8 °F 29.8 in SSE 1 mph 1 mph 94 % 0 in
08:02 39.4 °F 38.1 °F 29.8 in SE 2 mph 2 mph 95 % 0 in
08:12 39.4 °F 38.1 °F 29.8 in Calm   4 mph 95 % 0 in
08:17 39.4 °F 38.1 °F 29.8 in SE 2 mph 4 mph 95 % 0 in
08:22 39.2 °F 37.9 °F 29.8 in SE 1 mph 3 mph 95 % 0 in
08:27 39.2 °F 37.9 °F 29.8 in Calm   3 mph 95 % 0 in
08:32 39.4 °F 38.3 °F 29.7 in East 2 mph 5 mph 96 % 0 in
08:37 39.4 °F 38.3 °F 29.7 in SE 1 mph 5 mph 96 % 0 in
08:42 39.4 °F 38.1 °F 29.7 in Calm   5 mph 95 % 0 in
08:47 39.6 °F 38.3 °F 29.7 in ESE 2 mph 5 mph 95 % 0 in
08:52 39.7 °F 38.5 °F 29.7 in SE 1 mph 5 mph 95 % 0 in
09:02 40.5 °F 39.2 °F 29.7 in SE 1 mph 5 mph 95 % 0 in
09:07 40.8 °F 39.6 °F 29.7 in South 3 mph 5 mph 95 % 0 in
09:12 41.4 °F 39.7 °F 29.7 in SE 4 mph 5 mph 94 % 0 in
09:17 41.5 °F 39.7 °F 29.7 in SSE 2 mph 8 mph 93 % 0 in
09:22 41.9 °F 39.7 °F 29.7 in South 3 mph 8 mph 92 % 0 in
09:32 42.6 °F 40.1 °F 29.7 in SE 2 mph 12 mph 91 % 0 in
09:37 43 °F 40.3 °F 29.7 in SSE 4 mph 12 mph 90 % 0 in
09:42 43 °F 40.3 °F 29.7 in SSE 7 mph 10 mph 90 % 0 in
09:47 43.3 °F 40.3 °F 29.7 in SW 6 mph 11 mph 89 % 0 in
09:52 43.5 °F 40.5 °F 29.7 in SSE 6 mph 11 mph 89 % 0 in
09:57 43.9 °F 40.6 °F 29.7 in South 3 mph 11 mph 88 % 0 in
10:02 43.9 °F 40.6 °F 29.7 in South 9 mph 10 mph 88 % 0 in
10:07 44.1 °F 40.8 °F 29.7 in SSE 6 mph 11 mph 88 % 0 in
10:12 44.2 °F 41 °F 29.7 in South 9 mph 11 mph 88 % 0 in
10:17 44.4 °F 40.8 °F 29.7 in SSE 6 mph 13 mph 87 % 0 in
10:22 44.8 °F 41.2 °F 29.7 in ESE 9 mph 13 mph 87 % 0 in
10:27 45.1 °F 41.2 °F 29.7 in SSE 9 mph 13 mph 86 % 0 in
10:32 45.5 °F 41.5 °F 29.7 in ESE 6 mph 11 mph 86 % 0 in
10:37 45.9 °F 41.4 °F 29.7 in SSE 6 mph 11 mph 84 % 0 in
10:42 46.2 °F 41.9 °F 29.7 in SE 4 mph 12 mph 85 % 0 in
10:52 46.2 °F 40.6 °F 29.7 in South 7 mph 11 mph 81 % 0 in
10:57 46.2 °F 41 °F 29.7 in ESE 6 mph 14 mph 82 % 0 in
11:02 46.6 °F 41.4 °F 29.7 in ESE 4 mph 14 mph 82 % 0 in
11:07 46.8 °F 41.2 °F 29.7 in South 3 mph 12 mph 81 % 0 in
11:12 47.3 °F 41.7 °F 29.7 in SSE 6 mph 13 mph 81 % 0 in
11:17 47.3 °F 41.4 °F 29.7 in SSE 6 mph 13 mph 80 % 0 in
11:22 47.1 °F 40.6 °F 29.7 in SSW 7 mph 13 mph 78 % 0 in
11:27 47.1 °F 41 °F 29.7 in ESE 8 mph 13 mph 79 % 0 in
11:32 47.1 °F 41 °F 29.7 in ESE 4 mph 13 mph 79 % 0 in
11:37 47.7 °F 41.5 °F 29.7 in SSE 8 mph 13 mph 79 % 0 in
11:42 47.7 °F 41.5 °F 29.7 in SSE 3 mph 14 mph 79 % 0 in
11:47 47.7 °F 40.8 °F 29.7 in South 7 mph 14 mph 77 % 0 in
11:52 47.3 °F 40.1 °F 29.7 in SE 4 mph 14 mph 76 % 0 in
11:57 47.1 °F 40.3 °F 29.7 in SE 4 mph 14 mph 77 % 0 in
12:02 46.9 °F 40.1 °F 29.7 in SSE 1 mph 14 mph 77 % 0 in
12:07 46.9 °F 40.5 °F 29.7 in South 5 mph 12 mph 78 % 0 in
12:12 47.1 °F 40.6 °F 29.7 in SW 2 mph 11 mph 78 % 0 in
12:17 47.1 °F 40.6 °F 29.7 in SE 4 mph 11 mph 78 % 0 in
12:22 47.1 °F 40.6 °F 29.7 in SSW 2 mph 11 mph 78 % 0 in
12:27 47.3 °F 40.5 °F 29.7 in SSW 3 mph 8 mph 77 % 0 in
12:32 47.5 °F 41 °F 29.7 in SSE 3 mph 11 mph 78 % 0 in
12:42 47.7 °F 41.5 °F 29.7 in South 6 mph 10 mph 79 % 0 in
12:47 47.7 °F 41.5 °F 29.7 in South 4 mph 10 mph 79 % 0 in
12:57 47.8 °F 41.4 °F 29.7 in SSW 8 mph 12 mph 78 % 0 in
13:02 47.8 °F 40.6 °F 29.7 in SSW 12 mph 15 mph 76 % 0 in
13:07 47.8 °F 40.6 °F 29.7 in SSW 14 mph 21 mph 76 % 0 in
13:12 47.5 °F 40.3 °F 29.7 in SW 22 mph 22 mph 76 % 0 in
13:17 47.1 °F 41 °F 29.7 in South 12 mph 22 mph 79 % 0 in
13:22 46.8 °F 39.9 °F 29.7 in SW 27 mph 27 mph 77 % 0 in
13:27 46 °F 39.9 °F 29.7 in SSW 18 mph 31 mph 79 % 0.02 in
13:32 45.5 °F 40.3 °F 29.7 in SSW 19 mph 31 mph 82 % 0.02 in
13:37 45 °F 39.7 °F 29.7 in SSW 22 mph 31 mph 82 % 0.03 in
13:42 44.8 °F 39.9 °F 29.7 in SSW 6 mph 29 mph 83 % 0.05 in
13:47 44.4 °F 40.3 °F 29.6 in SSE 6 mph 25 mph 85 % 0.05 in
13:52 44.8 °F 40.3 °F 29.6 in South 10 mph 25 mph 84 % 0.06 in
13:57 45 °F 40.6 °F 29.6 in SSE 4 mph 20 mph 85 % 0.06 in
14:02 45 °F 40.5 °F 29.6 in SSE 5 mph 20 mph 84 % 0.06 in
14:07 45 °F 40.5 °F 29.6 in SSW 9 mph 19 mph 84 % 0.06 in
14:12 44.8 °F 40.5 °F 29.6 in SSE 6 mph 23 mph 85 % 0.06 in
14:17 44.8 °F 40.8 °F 29.6 in SSE 7 mph 23 mph 86 % 0.06 in
14:22 44.4 °F 40.8 °F 29.6 in SSE 9 mph 23 mph 87 % 0.05 in
14:32 44.2 °F 41 °F 29.6 in ESE 5 mph 16 mph 88 % 0.05 in
14:37 44.4 °F 41.2 °F 29.6 in SSE 3 mph 13 mph 88 % 0.03 in
14:42 44.4 °F 41.2 °F 29.6 in SE 3 mph 12 mph 88 % 0.02 in
14:47 44.2 °F 41 °F 29.6 in SSE 8 mph 12 mph 88 % 0.02 in
14:52 44.4 °F 41.2 °F 29.6 in SE 3 mph 12 mph 88 % 0.02 in
14:57 44.4 °F 41.2 °F 29.6 in ESE 6 mph 11 mph 88 % 0.02 in
15:02 44.4 °F 41.2 °F 29.6 in ESE 6 mph 11 mph 88 % 0.02 in
15:07 44.4 °F 41.4 °F 29.6 in SE 4 mph 11 mph 89 % 0.02 in
15:12 44.4 °F 41.2 °F 29.6 in SSW 5 mph 12 mph 88 % 0.02 in
15:17 44.6 °F 41.2 °F 29.6 in SE 4 mph 12 mph 88 % 0.02 in
15:22 44.8 °F 41.4 °F 29.6 in South 8 mph 11 mph 88 % 0.02 in
15:27 45 °F 41.4 °F 29.6 in SSW 4 mph 16 mph 87 % 0.02 in
15:32 45 °F 41.4 °F 29.6 in South 7 mph 16 mph 87 % 0.01 in
15:37 45.1 °F 41.2 °F 29.6 in South 5 mph 15 mph 86 % 0.01 in
15:42 45.3 °F 41.4 °F 29.6 in SSE 4 mph 18 mph 86 % 0.01 in
15:47 45.3 °F 41.4 °F 29.6 in SSE 4 mph 18 mph 86 % 0.01 in
15:52 45.5 °F 41.5 °F 29.6 in SW 7 mph 18 mph 86 % 0.01 in
16:02 46.6 °F 42.1 °F 29.6 in SSE 10 mph 20 mph 84 % 0.01 in
16:07 46.9 °F 42.1 °F 29.6 in SSE 10 mph 22 mph 83 % 0.01 in
16:12 47.1 °F 42.3 °F 29.6 in SW 16 mph 22 mph 83 % 0 in
16:17 47.3 °F 42.4 °F 29.6 in SSW 8 mph 20 mph 83 % 0 in
16:22 47.3 °F 42.1 °F 29.6 in SSW 15 mph 22 mph 82 % 0 in
16:27 47.1 °F 42.3 °F 29.6 in SSW 19 mph 22 mph 83 % 0 in
16:32 46.9 °F 42.6 °F 29.6 in South 15 mph 21 mph 85 % 0 in
16:37 46.8 °F 42.8 °F 29.6 in SSW 17 mph 29 mph 86 % 0 in
16:42 46.6 °F 43 °F 29.6 in SSW 8 mph 29 mph 87 % 0 in
16:47 46.6 °F 43 °F 29.6 in SSW 11 mph 29 mph 87 % 0 in
16:52 46.6 °F 42.6 °F 29.6 in SSW 13 mph 24 mph 86 % 0 in
16:57 46.8 °F 42.8 °F 29.6 in SSW 7 mph 21 mph 86 % 0 in
17:02 46.9 °F 43 °F 29.6 in SW 16 mph 21 mph 86 % 0 in
17:07 47.1 °F 42.8 °F 29.6 in SSW 13 mph 20 mph 85 % 0 in
17:12 47.5 °F 42.8 °F 29.6 in SW 12 mph 22 mph 84 % 0 in
17:17 47.5 °F 42.8 °F 29.6 in SW 16 mph 22 mph 84 % 0 in
17:22 47.8 °F 43.2 °F 29.6 in SW 17 mph 22 mph 84 % 0 in
17:27 48.4 °F 42.4 °F 29.6 in SW 17 mph 32 mph 80 % 0.01 in
17:32 48.6 °F 42.3 °F 29.6 in WSW 23 mph 32 mph 79 % 0.01 in
17:37 48.4 °F 42.4 °F 29.6 in SW 14 mph 32 mph 80 % 0.01 in
17:42 48.4 °F 42.8 °F 29.6 in SW 13 mph 31 mph 81 % 0.01 in
17:47 48 °F 42.4 °F 29.6 in SW 21 mph 31 mph 81 % 0.01 in
17:52 48 °F 42.4 °F 29.6 in SW 15 mph 32 mph 81 % 0.01 in
17:57 48 °F 42.4 °F 29.6 in SW 21 mph 32 mph 81 % 0.01 in
18:02 48 °F 42.1 °F 29.6 in SSW 14 mph 26 mph 80 % 0.01 in
18:07 48 °F 42.1 °F 29.6 in SSW 11 mph 29 mph 80 % 0.01 in
18:12 47.8 °F 42.3 °F 29.6 in WSW 19 mph 29 mph 81 % 0.01 in
18:17 47.5 °F 41.9 °F 29.6 in SW 13 mph 27 mph 81 % 0.01 in
18:22 47.3 °F 42.1 °F 29.6 in SW 13 mph 27 mph 82 % 0.01 in
18:27 47.1 °F 41.9 °F 29.6 in SSW 16 mph 31 mph 82 % 0 in
18:32 47.1 °F 41.9 °F 29.7 in SW 20 mph 31 mph 82 % 0 in
18:42 46.9 °F 41.7 °F 29.6 in SW 13 mph 27 mph 82 % 0 in
18:47 46.8 °F 41.9 °F 29.7 in SW 15 mph 23 mph 83 % 0 in
18:52 46.8 °F 42.3 °F 29.7 in SW 11 mph 22 mph 84 % 0 in
18:57 46.4 °F 42.1 °F 29.7 in WSW 7 mph 28 mph 85 % 0 in
19:02 46.2 °F 41.9 °F 29.7 in WSW 14 mph 28 mph 85 % 0 in
19:07 46.4 °F 41.9 °F 29.7 in SW 13 mph 26 mph 84 % 0 in
19:12 46.2 °F 41.7 °F 29.7 in SW 17 mph 22 mph 84 % 0 in
19:17 46.2 °F 41.4 °F 29.7 in WSW 16 mph 22 mph 83 % 0 in
19:22 46.2 °F 41 °F 29.7 in WSW 15 mph 24 mph 82 % 0 in
19:27 46 °F 40.8 °F 29.7 in WSW 24 mph 24 mph 82 % 0 in
19:32 46 °F 40.8 °F 29.7 in SW 6 mph 32 mph 82 % 0 in
19:37 46 °F 40.8 °F 29.7 in SW 12 mph 32 mph 82 % 0 in
19:42 46 °F 40.8 °F 29.7 in SSW 16 mph 32 mph 82 % 0 in
19:47 45.9 °F 41 °F 29.7 in SW 6 mph 27 mph 83 % 0 in
19:52 45.7 °F 40.8 °F 29.7 in SW 10 mph 27 mph 83 % 0 in
19:57 45.9 °F 40.6 °F 29.7 in SW 14 mph 21 mph 82 % 0.01 in
20:02 45.9 °F 40.6 °F 29.7 in SSW 12 mph 18 mph 82 % 0.01 in
20:07 45.9 °F 40.6 °F 29.7 in SW 11 mph 19 mph 82 % 0.01 in
20:17 45.9 °F 40.6 °F 29.7 in SW 16 mph 19 mph 82 % 0.01 in
20:22 45.7 °F 40.8 °F 29.7 in SW 17 mph 20 mph 83 % 0.01 in
20:27 45.3 °F 40.8 °F 29.7 in SW 11 mph 21 mph 84 % 0.01 in
20:32 45.1 °F 40.6 °F 29.7 in SW 11 mph 21 mph 84 % 0.01 in
20:37 45.1 °F 40.6 °F 29.7 in SW 14 mph 21 mph 84 % 0.01 in
20:42 45.3 °F 40.5 °F 29.7 in WSW 15 mph 18 mph 83 % 0.01 in
20:47 45.5 °F 40.6 °F 29.7 in SW 8 mph 20 mph 83 % 0.01 in
20:57 45.3 °F 40.8 °F 29.7 in SSW 7 mph 20 mph 84 % 0 in
21:02 45 °F 40.6 °F 29.7 in SW 5 mph 17 mph 85 % 0 in
21:07 44.8 °F 40.8 °F 29.7 in SW 11 mph 15 mph 86 % 0 in
21:12 44.4 °F 40.5 °F 29.7 in SW 11 mph 15 mph 86 % 0 in
21:17 44.4 °F 40.5 °F 29.7 in South 6 mph 16 mph 86 % 0 in
21:22 44.1 °F 40.1 °F 29.7 in SW 5 mph 16 mph 86 % 0 in
21:27 43.7 °F 39.7 °F 29.7 in SW 10 mph 16 mph 86 % 0 in
21:32 43.5 °F 39.9 °F 29.7 in SW 9 mph 14 mph 87 % 0 in
21:37 43.3 °F 40.1 °F 29.7 in SSW 7 mph 13 mph 88 % 0 in
21:42 43 °F 39.7 °F 29.7 in SSW 5 mph 13 mph 88 % 0 in
21:47 42.4 °F 39.4 °F 29.7 in SSW 3 mph 13 mph 89 % 0 in
21:52 42.4 °F 39.7 °F 29.7 in SSW 5 mph 10 mph 90 % 0 in
21:57 42.6 °F 39.6 °F 29.7 in SW 7 mph 8 mph 89 % 0 in
22:02 42.6 °F 39.6 °F 29.7 in SSW 3 mph 9 mph 89 % 0 in
22:07 42.4 °F 39.4 °F 29.7 in SSE 3 mph 9 mph 89 % 0 in
22:12 42.1 °F 39 °F 29.7 in SW 6 mph 9 mph 89 % 0 in
22:17 41.9 °F 39.2 °F 29.7 in South 9 mph 9 mph 90 % 0 in
22:27 41.7 °F 39 °F 29.7 in SSW 8 mph 11 mph 90 % 0 in
22:32 41.7 °F 39 °F 29.7 in SSW 6 mph 11 mph 90 % 0 in
22:37 41.5 °F 38.8 °F 29.7 in SSW 5 mph 11 mph 90 % 0 in
22:42 41.5 °F 38.8 °F 29.7 in SSW 9 mph 11 mph 90 % 0 in
22:47 41.5 °F 38.8 °F 29.7 in SSW 7 mph 11 mph 90 % 0 in
22:52 41.4 °F 38.7 °F 29.7 in SW 8 mph 11 mph 90 % 0 in
22:57 41.5 °F 38.8 °F 29.7 in SSW 7 mph 14 mph 90 % 0 in
23:02 41.4 °F 38.7 °F 29.7 in SW 7 mph 14 mph 90 % 0 in
23:07 41.4 °F 39 °F 29.7 in SSW 7 mph 14 mph 91 % 0 in
23:12 41.4 °F 38.7 °F 29.7 in SSW 8 mph 11 mph 90 % 0 in
23:17 41.5 °F 38.5 °F 29.7 in SSW 7 mph 11 mph 89 % 0 in
23:22 41.7 °F 38.7 °F 29.7 in SSW 6 mph 14 mph 89 % 0 in
23:27 41.5 °F 38.5 °F 29.7 in South 8 mph 14 mph 89 % 0 in
23:32 41.4 °F 38.3 °F 29.7 in SSW 6 mph 13 mph 89 % 0 in
23:37 41.4 °F 38.3 °F 29.7 in South 8 mph 11 mph 89 % 0 in
23:42 41.4 °F 38.3 °F 29.7 in South 6 mph 11 mph 89 % 0 in
23:47 41.2 °F 38.1 °F 29.7 in SSE 2 mph 11 mph 89 % 0 in
23:52 41.2 °F 38.1 °F 29.7 in South 3 mph 11 mph 89 % 0 in
23:57 40.8 °F 37.8 °F 29.7 in South 3 mph 8 mph 89 % 0 in
Meteo18
Compliments of Weather Underground - 4 mb

Script developed by  Jim McMurry - jmcmurry@mwt.net Adapted for the template by  Wim van der Kuil - Leuven-Template.eu

You find our weather info also at:

European Weather Network

Weather Underground

Equipment we use:

Weather-station
Davis Vue

Weather-program
Meteohub

Weather-server
Raspberry PI 2 B+

Provider
1 and 1

Davis Vue

Meteohub

Raspberry PI 2 B+

1 and 1